MMLM/LMM METAR and TAF weather

Enter ICAO airport designator
Station Type Date Time Source
MMLM METAR 2018/12/11 19:40 UTC NOAA

MMLM 111940Z 22008KT 10SM SCT020 BKN220 24/16 A3003 RMK 8/108 HZY


Station Type Date Time Source
MMLM Decoded METAR 2018/12/11 19:40 UTC NOAA

Los Mochis Airport, Mexico (MMLM) 25-41N 109-05W
Dec 11, 2018 - 02:40 PM EST / 2018.12.11 1940 UTC
Wind: from the SW (220 degrees) at 9 MPH (8 KT):0
Visibility: 10 mile(s):0
Sky conditions: mostly cloudy
Temperature: 75 F (24 C)
Dew Point: 60 F (16 C)
Relative Humidity: 60%
Pressure (altimeter): 30.03 in. Hg (1016 hPa)
ob: MMLM 111940Z 22008KT 10SM SCT020 BKN220 24/16 A3003 RMK 8/108 HZY
cycle: 19

Station Type Date Time Source
MMLM TAF 2018/12/11 18:48 UTC NOAA

TAF MMLM 111641Z 1118/1218 20010KT P6SM BKN200
FM120600 15005KT P6SM BKN030 BKN200


Example: see airport list